sensor_id;sensor_type;location;lat;lon;timestamp;P1;durP1;ratioP1;P2;durP2;ratioP2
50379;SDS011;37474;59.468;18.040;2022-07-26T00:00:09;11.60;;;7.57;;
50379;SDS011;37474;59.468;18.040;2022-07-26T00:02:41;9.25;;;7.50;;
50379;SDS011;37474;59.468;18.040;2022-07-26T00:05:15;9.73;;;7.25;;
50379;SDS011;37474;59.468;18.040;2022-07-26T00:07:44;9.15;;;7.07;;
50379;SDS011;37474;59.468;18.040;2022-07-26T00:10:14;9.82;;;7.28;;
50379;SDS011;37474;59.468;18.040;2022-07-26T00:12:44;11.00;;;7.60;;
50379;SDS011;37474;59.468;18.040;2022-07-26T00:15:11;12.05;;;7.80;;
50379;SDS011;37474;59.468;18.040;2022-07-26T00:17:42;9.07;;;7.47;;
50379;SDS011;37474;59.468;18.040;2022-07-26T00:20:14;10.97;;;7.87;;
50379;SDS011;37474;59.468;18.040;2022-07-26T00:22:43;9.60;;;7.13;;
50379;SDS011;37474;59.468;18.040;2022-07-26T00:25:13;9.55;;;7.38;;
50379;SDS011;37474;59.468;18.040;2022-07-26T00:27:43;9.75;;;6.90;;
50379;SDS011;37474;59.468;18.040;2022-07-26T00:30:11;9.00;;;7.45;;
50379;SDS011;37474;59.468;18.040;2022-07-26T00:32:40;10.63;;;7.78;;
50379;SDS011;37474;59.468;18.040;2022-07-26T00:35:10;11.40;;;7.40;;
50379;SDS011;37474;59.468;18.040;2022-07-26T00:37:39;9.15;;;6.90;;
50379;SDS011;37474;59.468;18.040;2022-07-26T00:40:10;10.68;;;6.80;;
50379;SDS011;37474;59.468;18.040;2022-07-26T00:42:41;8.90;;;6.72;;
50379;SDS011;37474;59.468;18.040;2022-07-26T00:45:10;10.73;;;6.80;;
50379;SDS011;37474;59.468;18.040;2022-07-26T00:47:44;11.35;;;6.80;;
50379;SDS011;37474;59.468;18.040;2022-07-26T00:50:13;10.10;;;6.60;;
50379;SDS011;37474;59.468;18.040;2022-07-26T00:52:46;10.93;;;7.15;;
50379;SDS011;37474;59.468;18.040;2022-07-26T00:55:17;10.40;;;6.78;;
50379;SDS011;37474;59.468;18.040;2022-07-26T00:57:47;9.85;;;6.82;;
50379;SDS011;37474;59.468;18.040;2022-07-26T01:00:17;8.63;;;6.67;;
50379;SDS011;37474;59.468;18.040;2022-07-26T01:02:48;10.07;;;7.03;;
50379;SDS011;37474;59.468;18.040;2022-07-26T01:05:18;9.52;;;6.90;;
50379;SDS011;37474;59.468;18.040;2022-07-26T01:07:49;10.13;;;7.00;;
50379;SDS011;37474;59.468;18.040;2022-07-26T01:10:23;10.60;;;7.00;;
50379;SDS011;37474;59.468;18.040;2022-07-26T01:12:51;8.40;;;7.13;;
50379;SDS011;37474;59.468;18.040;2022-07-26T01:15:19;8.40;;;7.20;;
50379;SDS011;37474;59.468;18.040;2022-07-26T01:17:51;8.95;;;6.85;;
50379;SDS011;37474;59.468;18.040;2022-07-26T01:20:21;8.63;;;7.17;;
50379;SDS011;37474;59.468;18.040;2022-07-26T01:22:50;8.90;;;7.68;;
50379;SDS011;37474;59.468;18.040;2022-07-26T01:25:27;8.23;;;7.18;;
50379;SDS011;37474;59.468;18.040;2022-07-26T01:28:08;10.18;;;7.15;;
50379;SDS011;37474;59.468;18.040;2022-07-26T01:30:47;9.45;;;7.55;;
50379;SDS011;37474;59.468;18.040;2022-07-26T01:33:15;10.20;;;7.47;;
50379;SDS011;37474;59.468;18.040;2022-07-26T01:35:45;8.60;;;7.43;;
50379;SDS011;37474;59.468;18.040;2022-07-26T01:38:16;8.93;;;7.32;;
50379;SDS011;37474;59.468;18.040;2022-07-26T01:40:44;9.18;;;7.97;;
50379;SDS011;37474;59.468;18.040;2022-07-26T01:43:14;10.05;;;8.00;;
50379;SDS011;37474;59.468;18.040;2022-07-26T01:45:44;11.63;;;8.45;;
50379;SDS011;37474;59.468;18.040;2022-07-26T01:48:13;9.77;;;8.10;;
50379;SDS011;37474;59.468;18.040;2022-07-26T01:50:44;11.65;;;7.93;;
50379;SDS011;37474;59.468;18.040;2022-07-26T01:53:13;9.43;;;7.90;;
50379;SDS011;37474;59.468;18.040;2022-07-26T01:55:42;8.75;;;7.20;;
50379;SDS011;37474;59.468;18.040;2022-07-26T01:58:14;10.32;;;7.50;;
50379;SDS011;37474;59.468;18.040;2022-07-26T02:00:42;9.63;;;7.25;;
50379;SDS011;37474;59.468;18.040;2022-07-26T02:03:10;8.00;;;7.15;;
50379;SDS011;37474;59.468;18.040;2022-07-26T02:05:41;11.48;;;7.65;;
50379;SDS011;37474;59.468;18.040;2022-07-26T02:08:12;10.35;;;7.38;;
50379;SDS011;37474;59.468;18.040;2022-07-26T02:10:41;11.25;;;8.20;;
50379;SDS011;37474;59.468;18.040;2022-07-26T02:13:33;8.80;;;7.90;;
50379;SDS011;37474;59.468;18.040;2022-07-26T02:16:02;10.15;;;7.80;;
50379;SDS011;37474;59.468;18.040;2022-07-26T02:18:35;9.65;;;8.13;;
50379;SDS011;37474;59.468;18.040;2022-07-26T02:21:06;9.25;;;7.78;;
50379;SDS011;37474;59.468;18.040;2022-07-26T02:23:34;10.17;;;8.03;;
50379;SDS011;37474;59.468;18.040;2022-07-26T02:26:10;9.00;;;7.95;;
50379;SDS011;37474;59.468;18.040;2022-07-26T02:28:38;9.38;;;8.13;;
50379;SDS011;37474;59.468;18.040;2022-07-26T02:31:08;11.33;;;8.50;;
50379;SDS011;37474;59.468;18.040;2022-07-26T02:33:42;12.15;;;8.90;;
50379;SDS011;37474;59.468;18.040;2022-07-26T02:36:12;10.63;;;8.80;;
50379;SDS011;37474;59.468;18.040;2022-07-26T02:38:40;11.57;;;8.73;;
50379;SDS011;37474;59.468;18.040;2022-07-26T02:41:11;11.02;;;8.80;;
50379;SDS011;37474;59.468;18.040;2022-07-26T02:43:41;11.85;;;8.80;;
50379;SDS011;37474;59.468;18.040;2022-07-26T02:46:09;12.15;;;8.60;;
50379;SDS011;37474;59.468;18.040;2022-07-26T02:48:39;9.57;;;8.43;;
50379;SDS011;37474;59.468;18.040;2022-07-26T02:51:11;10.73;;;8.80;;
50379;SDS011;37474;59.468;18.040;2022-07-26T02:53:39;11.20;;;8.63;;
50379;SDS011;37474;59.468;18.040;2022-07-26T02:56:07;12.52;;;9.32;;
50379;SDS011;37474;59.468;18.040;2022-07-26T02:58:39;10.70;;;8.93;;
50379;SDS011;37474;59.468;18.040;2022-07-26T03:01:07;9.63;;;8.60;;
50379;SDS011;37474;59.468;18.040;2022-07-26T03:03:35;9.52;;;8.60;;
50379;SDS011;37474;59.468;18.040;2022-07-26T03:06:07;10.82;;;8.95;;
50379;SDS011;37474;59.468;18.040;2022-07-26T03:08:35;12.40;;;9.70;;
50379;SDS011;37474;59.468;18.040;2022-07-26T03:11:03;11.00;;;8.63;;
50379;SDS011;37474;59.468;18.040;2022-07-26T03:13:40;9.57;;;8.57;;
50379;SDS011;37474;59.468;18.040;2022-07-26T03:16:10;14.05;;;9.20;;
50379;SDS011;37474;59.468;18.040;2022-07-26T03:18:38;10.60;;;9.00;;
50379;SDS011;37474;59.468;18.040;2022-07-26T03:21:07;11.68;;;9.52;;
50379;SDS011;37474;59.468;18.040;2022-07-26T03:23:38;10.73;;;8.95;;
50379;SDS011;37474;59.468;18.040;2022-07-26T03:26:05;9.95;;;8.50;;
50379;SDS011;37474;59.468;18.040;2022-07-26T03:28:35;10.55;;;9.05;;
50379;SDS011;37474;59.468;18.040;2022-07-26T03:31:08;10.90;;;9.25;;
50379;SDS011;37474;59.468;18.040;2022-07-26T03:33:35;10.57;;;9.10;;
50379;SDS011;37474;59.468;18.040;2022-07-26T03:36:06;11.73;;;9.90;;
50379;SDS011;37474;59.468;18.040;2022-07-26T03:38:43;13.32;;;9.80;;
50379;SDS011;37474;59.468;18.040;2022-07-26T03:41:11;12.93;;;10.30;;
50379;SDS011;37474;59.468;18.040;2022-07-26T03:43:41;12.40;;;10.07;;
50379;SDS011;37474;59.468;18.040;2022-07-26T03:46:12;12.93;;;9.43;;
50379;SDS011;37474;59.468;18.040;2022-07-26T03:48:40;12.73;;;10.00;;
50379;SDS011;37474;59.468;18.040;2022-07-26T03:51:10;12.40;;;9.77;;
50379;SDS011;37474;59.468;18.040;2022-07-26T03:53:40;11.82;;;10.38;;
50379;SDS011;37474;59.468;18.040;2022-07-26T03:56:08;11.25;;;9.82;;
50379;SDS011;37474;59.468;18.040;2022-07-26T03:58:56;11.00;;;9.80;;
50379;SDS011;37474;59.468;18.040;2022-07-26T04:01:26;11.82;;;9.55;;
50379;SDS011;37474;59.468;18.040;2022-07-26T04:03:55;12.77;;;9.93;;
50379;SDS011;37474;59.468;18.040;2022-07-26T04:06:27;13.38;;;9.45;;
50379;SDS011;37474;59.468;18.040;2022-07-26T04:08:56;10.60;;;9.02;;
50379;SDS011;37474;59.468;18.040;2022-07-26T04:11:24;12.57;;;10.00;;
50379;SDS011;37474;59.468;18.040;2022-07-26T04:13:56;11.50;;;9.20;;
50379;SDS011;37474;59.468;18.040;2022-07-26T04:16:24;10.90;;;8.87;;
50379;SDS011;37474;59.468;18.040;2022-07-26T04:18:54;10.93;;;9.20;;
50379;SDS011;37474;59.468;18.040;2022-07-26T04:21:26;12.45;;;9.40;;
50379;SDS011;37474;59.468;18.040;2022-07-26T04:23:54;10.88;;;9.75;;
50379;SDS011;37474;59.468;18.040;2022-07-26T04:26:24;10.10;;;8.85;;
50379;SDS011;37474;59.468;18.040;2022-07-26T04:28:54;12.13;;;9.48;;
50379;SDS011;37474;59.468;18.040;2022-07-26T04:31:22;11.88;;;9.88;;
50379;SDS011;37474;59.468;18.040;2022-07-26T04:33:53;10.98;;;9.43;;
50379;SDS011;37474;59.468;18.040;2022-07-26T04:36:23;11.65;;;9.68;;
50379;SDS011;37474;59.468;18.040;2022-07-26T04:38:51;11.75;;;9.48;;
50379;SDS011;37474;59.468;18.040;2022-07-26T04:41:21;11.75;;;9.55;;
50379;SDS011;37474;59.468;18.040;2022-07-26T04:43:51;11.40;;;9.75;;
50379;SDS011;37474;59.468;18.040;2022-07-26T04:46:19;13.32;;;10.10;;
50379;SDS011;37474;59.468;18.040;2022-07-26T04:48:49;12.02;;;9.57;;
50379;SDS011;37474;59.468;18.040;2022-07-26T04:51:20;11.75;;;9.20;;
50379;SDS011;37474;59.468;18.040;2022-07-26T04:53:48;12.15;;;9.15;;
50379;SDS011;37474;59.468;18.040;2022-07-26T04:56:18;11.35;;;9.52;;
50379;SDS011;37474;59.468;18.040;2022-07-26T04:58:48;11.13;;;8.75;;
50379;SDS011;37474;59.468;18.040;2022-07-26T05:01:16;9.90;;;8.52;;
50379;SDS011;37474;59.468;18.040;2022-07-26T05:03:44;9.88;;;8.20;;
50379;SDS011;37474;59.468;18.040;2022-07-26T05:06:11;10.45;;;8.25;;
50379;SDS011;37474;59.468;18.040;2022-07-26T05:08:41;11.07;;;8.38;;
50379;SDS011;37474;59.468;18.040;2022-07-26T05:11:11;11.00;;;8.30;;
50379;SDS011;37474;59.468;18.040;2022-07-26T05:13:40;11.70;;;9.20;;
50379;SDS011;37474;59.468;18.040;2022-07-26T05:16:08;10.48;;;8.48;;
50379;SDS011;37474;59.468;18.040;2022-07-26T05:18:40;12.23;;;8.52;;
50379;SDS011;37474;59.468;18.040;2022-07-26T05:21:14;11.10;;;8.68;;
50379;SDS011;37474;59.468;18.040;2022-07-26T05:23:46;10.10;;;8.40;;
50379;SDS011;37474;59.468;18.040;2022-07-26T05:26:16;9.23;;;8.10;;
50379;SDS011;37474;59.468;18.040;2022-07-26T05:28:44;10.90;;;7.90;;
50379;SDS011;37474;59.468;18.040;2022-07-26T05:31:14;12.18;;;7.80;;
50379;SDS011;37474;59.468;18.040;2022-07-26T05:33:44;8.52;;;7.57;;
50379;SDS011;37474;59.468;18.040;2022-07-26T05:36:12;10.07;;;7.57;;
50379;SDS011;37474;59.468;18.040;2022-07-26T05:38:42;10.68;;;8.23;;
50379;SDS011;37474;59.468;18.040;2022-07-26T05:41:13;10.20;;;7.68;;
50379;SDS011;37474;59.468;18.040;2022-07-26T05:43:41;11.90;;;8.07;;
50379;SDS011;37474;59.468;18.040;2022-07-26T05:46:10;11.57;;;8.20;;
50379;SDS011;37474;59.468;18.040;2022-07-26T05:48:40;11.40;;;8.43;;
50379;SDS011;37474;59.468;18.040;2022-07-26T05:51:09;11.23;;;7.60;;
50379;SDS011;37474;59.468;18.040;2022-07-26T05:53:39;8.90;;;7.30;;
50379;SDS011;37474;59.468;18.040;2022-07-26T05:56:09;9.30;;;7.15;;
50379;SDS011;37474;59.468;18.040;2022-07-26T05:58:39;10.85;;;7.57;;
50379;SDS011;37474;59.468;18.040;2022-07-26T06:01:09;11.53;;;7.47;;
50379;SDS011;37474;59.468;18.040;2022-07-26T06:03:38;8.45;;;6.68;;
50379;SDS011;37474;59.468;18.040;2022-07-26T06:06:08;8.03;;;5.90;;
50379;SDS011;37474;59.468;18.040;2022-07-26T06:08:36;6.07;;;4.72;;
50379;SDS011;37474;59.468;18.040;2022-07-26T06:11:04;5.22;;;4.30;;
50379;SDS011;37474;59.468;18.040;2022-07-26T06:13:34;4.50;;;4.10;;
50379;SDS011;37474;59.468;18.040;2022-07-26T06:16:04;5.47;;;3.70;;
50379;SDS011;37474;59.468;18.040;2022-07-26T06:18:34;5.07;;;3.58;;
50379;SDS011;37474;59.468;18.040;2022-07-26T06:21:02;4.20;;;3.08;;
50379;SDS011;37474;59.468;18.040;2022-07-26T06:23:30;5.20;;;3.50;;
50379;SDS011;37474;59.468;18.040;2022-07-26T06:26:01;3.50;;;3.00;;
50379;SDS011;37474;59.468;18.040;2022-07-26T06:28:32;4.65;;;3.15;;
50379;SDS011;37474;59.468;18.040;2022-07-26T06:31:00;3.25;;;2.90;;
50379;SDS011;37474;59.468;18.040;2022-07-26T06:33:29;4.50;;;3.08;;
50379;SDS011;37474;59.468;18.040;2022-07-26T06:35:59;4.03;;;3.10;;
50379;SDS011;37474;59.468;18.040;2022-07-26T06:38:27;3.77;;;3.17;;
50379;SDS011;37474;59.468;18.040;2022-07-26T06:40:55;3.20;;;2.90;;
50379;SDS011;37474;59.468;18.040;2022-07-26T06:43:23;3.10;;;2.80;;
50379;SDS011;37474;59.468;18.040;2022-07-26T06:45:51;3.35;;;2.65;;
50379;SDS011;37474;59.468;18.040;2022-07-26T06:48:19;3.30;;;2.70;;
50379;SDS011;37474;59.468;18.040;2022-07-26T06:50:49;3.03;;;2.78;;
50379;SDS011;37474;59.468;18.040;2022-07-26T06:53:17;4.03;;;3.00;;
50379;SDS011;37474;59.468;18.040;2022-07-26T06:55:47;3.45;;;3.03;;
50379;SDS011;37474;59.468;18.040;2022-07-26T06:58:17;3.00;;;2.80;;
50379;SDS011;37474;59.468;18.040;2022-07-26T07:00:45;3.50;;;2.90;;
50379;SDS011;37474;59.468;18.040;2022-07-26T07:03:15;3.40;;;2.90;;
50379;SDS011;37474;59.468;18.040;2022-07-26T07:05:45;3.67;;;3.22;;
50379;SDS011;37474;59.468;18.040;2022-07-26T07:08:17;3.40;;;2.97;;
50379;SDS011;37474;59.468;18.040;2022-07-26T07:10:50;3.40;;;3.10;;
50379;SDS011;37474;59.468;18.040;2022-07-26T07:13:21;4.30;;;3.10;;
50379;SDS011;37474;59.468;18.040;2022-07-26T07:15:51;3.65;;;3.20;;
50379;SDS011;37474;59.468;18.040;2022-07-26T07:18:19;4.75;;;3.25;;
50379;SDS011;37474;59.468;18.040;2022-07-26T07:20:47;3.30;;;3.00;;
50379;SDS011;37474;59.468;18.040;2022-07-26T07:23:17;3.90;;;3.40;;
50379;SDS011;37474;59.468;18.040;2022-07-26T07:25:47;5.13;;;3.40;;
50379;SDS011;37474;59.468;18.040;2022-07-26T07:28:16;3.88;;;3.25;;
50379;SDS011;37474;59.468;18.040;2022-07-26T07:30:44;4.57;;;3.20;;
50379;SDS011;37474;59.468;18.040;2022-07-26T07:33:15;4.25;;;3.28;;
50379;SDS011;37474;59.468;18.040;2022-07-26T07:35:48;4.15;;;2.97;;
50379;SDS011;37474;59.468;18.040;2022-07-26T07:38:20;4.07;;;2.70;;
50379;SDS011;37474;59.468;18.040;2022-07-26T07:40:48;3.72;;;2.53;;
50379;SDS011;37474;59.468;18.040;2022-07-26T07:43:16;3.88;;;3.00;;
50379;SDS011;37474;59.468;18.040;2022-07-26T07:45:44;4.53;;;3.30;;
50379;SDS011;37474;59.468;18.040;2022-07-26T07:48:14;3.72;;;2.92;;
50379;SDS011;37474;59.468;18.040;2022-07-26T07:50:42;4.25;;;3.10;;
50379;SDS011;37474;59.468;18.040;2022-07-26T07:53:14;3.97;;;3.20;;
50379;SDS011;37474;59.468;18.040;2022-07-26T07:55:46;4.75;;;3.20;;
50379;SDS011;37474;59.468;18.040;2022-07-26T07:58:22;4.75;;;3.40;;
50379;SDS011;37474;59.468;18.040;2022-07-26T08:00:53;3.83;;;2.70;;
50379;SDS011;37474;59.468;18.040;2022-07-26T08:03:21;4.40;;;2.90;;
50379;SDS011;37474;59.468;18.040;2022-07-26T08:06:04;3.67;;;2.72;;
50379;SDS011;37474;59.468;18.040;2022-07-26T08:08:36;4.20;;;2.92;;
50379;SDS011;37474;59.468;18.040;2022-07-26T08:11:06;3.90;;;2.92;;
50379;SDS011;37474;59.468;18.040;2022-07-26T08:13:37;5.20;;;2.88;;
50379;SDS011;37474;59.468;18.040;2022-07-26T08:16:13;5.70;;;3.13;;
50379;SDS011;37474;59.468;18.040;2022-07-26T08:18:43;4.07;;;2.80;;
50379;SDS011;37474;59.468;18.040;2022-07-26T08:21:23;4.10;;;2.80;;
50379;SDS011;37474;59.468;18.040;2022-07-26T08:23:54;3.45;;;2.70;;
50379;SDS011;37474;59.468;18.040;2022-07-26T08:26:23;5.53;;;3.00;;
50379;SDS011;37474;59.468;18.040;2022-07-26T08:28:51;4.35;;;2.85;;
50379;SDS011;37474;59.468;18.040;2022-07-26T08:31:27;5.00;;;3.08;;
50379;SDS011;37474;59.468;18.040;2022-07-26T08:33:58;5.57;;;3.05;;
50379;SDS011;37474;59.468;18.040;2022-07-26T08:36:26;6.70;;;3.00;;
50379;SDS011;37474;59.468;18.040;2022-07-26T08:38:58;5.22;;;2.80;;
50379;SDS011;37474;59.468;18.040;2022-07-26T08:41:30;4.95;;;2.83;;
50379;SDS011;37474;59.468;18.040;2022-07-26T08:44:03;5.50;;;2.53;;
50379;SDS011;37474;59.468;18.040;2022-07-26T08:46:33;4.25;;;2.53;;
50379;SDS011;37474;59.468;18.040;2022-07-26T08:49:05;5.03;;;2.97;;
50379;SDS011;37474;59.468;18.040;2022-07-26T08:51:36;5.47;;;2.47;;
50379;SDS011;37474;59.468;18.040;2022-07-26T08:54:05;4.20;;;2.50;;
50379;SDS011;37474;59.468;18.040;2022-07-26T08:56:49;5.85;;;2.80;;
50379;SDS011;37474;59.468;18.040;2022-07-26T08:59:20;5.00;;;2.80;;
50379;SDS011;37474;59.468;18.040;2022-07-26T09:01:53;6.82;;;2.83;;
50379;SDS011;37474;59.468;18.040;2022-07-26T09:04:25;6.17;;;2.80;;
50379;SDS011;37474;59.468;18.040;2022-07-26T09:07:03;5.55;;;2.70;;
50379;SDS011;37474;59.468;18.040;2022-07-26T09:09:35;6.18;;;2.42;;
50379;SDS011;37474;59.468;18.040;2022-07-26T09:12:13;6.03;;;2.55;;
50379;SDS011;37474;59.468;18.040;2022-07-26T09:14:42;5.20;;;2.00;;
50379;SDS011;37474;59.468;18.040;2022-07-26T09:17:16;5.40;;;1.93;;
50379;SDS011;37474;59.468;18.040;2022-07-26T09:20:01;4.82;;;1.75;;
50379;SDS011;37474;59.468;18.040;2022-07-26T09:22:31;5.90;;;2.05;;
50379;SDS011;37474;59.468;18.040;2022-07-26T09:24:59;4.65;;;2.13;;
50379;SDS011;37474;59.468;18.040;2022-07-26T09:27:34;4.93;;;2.03;;
50379;SDS011;37474;59.468;18.040;2022-07-26T09:30:06;6.00;;;2.08;;
50379;SDS011;37474;59.468;18.040;2022-07-26T09:32:35;5.43;;;1.95;;
50379;SDS011;37474;59.468;18.040;2022-07-26T09:35:13;5.57;;;2.17;;
50379;SDS011;37474;59.468;18.040;2022-07-26T09:38:11;6.32;;;2.35;;
50379;SDS011;37474;59.468;18.040;2022-07-26T09:40:39;5.63;;;2.20;;
50379;SDS011;37474;59.468;18.040;2022-07-26T09:43:13;5.43;;;2.15;;
50379;SDS011;37474;59.468;18.040;2022-07-26T09:46:01;6.55;;;2.10;;
50379;SDS011;37474;59.468;18.040;2022-07-26T09:48:32;5.10;;;1.90;;
50379;SDS011;37474;59.468;18.040;2022-07-26T09:51:33;3.55;;;1.92;;
50379;SDS011;37474;59.468;18.040;2022-07-26T09:54:03;4.03;;;1.80;;
50379;SDS011;37474;59.468;18.040;2022-07-26T09:56:41;5.78;;;1.90;;
50379;SDS011;37474;59.468;18.040;2022-07-26T09:59:12;4.38;;;1.70;;
50379;SDS011;37474;59.468;18.040;2022-07-26T10:01:42;4.25;;;1.92;;
50379;SDS011;37474;59.468;18.040;2022-07-26T10:04:10;3.88;;;1.80;;
50379;SDS011;37474;59.468;18.040;2022-07-26T10:06:39;5.88;;;1.95;;
50379;SDS011;37474;59.468;18.040;2022-07-26T10:09:08;3.83;;;2.00;;
50379;SDS011;37474;59.468;18.040;2022-07-26T10:11:37;5.13;;;2.15;;
50379;SDS011;37474;59.468;18.040;2022-07-26T10:23:35;4.70;;;2.10;;
50379;SDS011;37474;59.468;18.040;2022-07-26T10:26:11;4.13;;;1.90;;
50379;SDS011;37474;59.468;18.040;2022-07-26T10:34:45;5.05;;;2.00;;
50379;SDS011;37474;59.468;18.040;2022-07-26T10:37:20;4.80;;;1.95;;
50379;SDS011;37474;59.468;18.040;2022-07-26T10:42:48;3.20;;;1.80;;
50379;SDS011;37474;59.468;18.040;2022-07-26T10:45:17;4.28;;;1.92;;
50379;SDS011;37474;59.468;18.040;2022-07-26T10:48:09;5.85;;;1.80;;
50379;SDS011;37474;59.468;18.040;2022-07-26T10:50:41;3.95;;;1.80;;
50379;SDS011;37474;59.468;18.040;2022-07-26T10:53:15;5.47;;;1.80;;
50379;SDS011;37474;59.468;18.040;2022-07-26T10:55:47;4.63;;;1.80;;
50379;SDS011;37474;59.468;18.040;2022-07-26T10:58:18;3.65;;;1.92;;
50379;SDS011;37474;59.468;18.040;2022-07-26T11:00:53;3.40;;;1.70;;
50379;SDS011;37474;59.468;18.040;2022-07-26T11:03:25;4.20;;;1.77;;
50379;SDS011;37474;59.468;18.040;2022-07-26T11:06:08;4.30;;;1.88;;
50379;SDS011;37474;59.468;18.040;2022-07-26T11:08:40;4.25;;;1.80;;
50379;SDS011;37474;59.468;18.040;2022-07-26T11:11:13;5.03;;;1.95;;
50379;SDS011;37474;59.468;18.040;2022-07-26T11:14:03;4.57;;;1.80;;
50379;SDS011;37474;59.468;18.040;2022-07-26T11:16:37;3.45;;;1.80;;
50379;SDS011;37474;59.468;18.040;2022-07-26T11:19:18;2.83;;;1.65;;
50379;SDS011;37474;59.468;18.040;2022-07-26T11:21:51;5.25;;;1.80;;
50379;SDS011;37474;59.468;18.040;2022-07-26T11:24:23;4.15;;;1.77;;
50379;SDS011;37474;59.468;18.040;2022-07-26T11:26:52;3.42;;;1.77;;
50379;SDS011;37474;59.468;18.040;2022-07-26T11:29:24;4.07;;;1.90;;
50379;SDS011;37474;59.468;18.040;2022-07-26T11:32:07;5.07;;;1.80;;
50379;SDS011;37474;59.468;18.040;2022-07-26T11:34:52;4.93;;;1.80;;
50379;SDS011;37474;59.468;18.040;2022-07-26T11:37:26;5.72;;;1.70;;
50379;SDS011;37474;59.468;18.040;2022-07-26T11:39:57;4.68;;;1.85;;
50379;SDS011;37474;59.468;18.040;2022-07-26T11:42:25;5.55;;;1.95;;
50379;SDS011;37474;59.468;18.040;2022-07-26T11:44:54;4.57;;;1.70;;
50379;SDS011;37474;59.468;18.040;2022-07-26T11:47:24;4.90;;;2.00;;
50379;SDS011;37474;59.468;18.040;2022-07-26T11:49:54;4.05;;;1.80;;
50379;SDS011;37474;59.468;18.040;2022-07-26T11:52:45;4.03;;;1.80;;
50379;SDS011;37474;59.468;18.040;2022-07-26T11:55:13;3.15;;;1.50;;
50379;SDS011;37474;59.468;18.040;2022-07-26T11:57:43;4.28;;;1.63;;
50379;SDS011;37474;59.468;18.040;2022-07-26T12:00:13;4.50;;;1.83;;
50379;SDS011;37474;59.468;18.040;2022-07-26T12:02:43;3.70;;;1.70;;
50379;SDS011;37474;59.468;18.040;2022-07-26T12:05:24;4.10;;;1.52;;
50379;SDS011;37474;59.468;18.040;2022-07-26T12:07:56;3.72;;;1.63;;
50379;SDS011;37474;59.468;18.040;2022-07-26T12:10:29;5.07;;;1.87;;
50379;SDS011;37474;59.468;18.040;2022-07-26T12:13:07;2.97;;;1.65;;
50379;SDS011;37474;59.468;18.040;2022-07-26T12:15:45;3.28;;;1.60;;
50379;SDS011;37474;59.468;18.040;2022-07-26T12:18:21;3.65;;;1.40;;
50379;SDS011;37474;59.468;18.040;2022-07-26T12:20:58;4.00;;;1.50;;
50379;SDS011;37474;59.468;18.040;2022-07-26T12:23:39;3.50;;;1.30;;
50379;SDS011;37474;59.468;18.040;2022-07-26T12:26:19;3.97;;;1.63;;
50379;SDS011;37474;59.468;18.040;2022-07-26T12:28:47;3.15;;;1.48;;
50379;SDS011;37474;59.468;18.040;2022-07-26T12:31:21;3.05;;;1.50;;
50379;SDS011;37474;59.468;18.040;2022-07-26T12:33:50;4.10;;;1.60;;
50379;SDS011;37474;59.468;18.040;2022-07-26T12:36:20;3.53;;;1.50;;
50379;SDS011;37474;59.468;18.040;2022-07-26T12:38:56;4.35;;;1.73;;
50379;SDS011;37474;59.468;18.040;2022-07-26T12:41:32;3.25;;;1.30;;
50379;SDS011;37474;59.468;18.040;2022-07-26T12:44:04;3.42;;;1.50;;
50379;SDS011;37474;59.468;18.040;2022-07-26T12:46:35;3.25;;;1.35;;
50379;SDS011;37474;59.468;18.040;2022-07-26T12:49:03;3.53;;;1.45;;
50379;SDS011;37474;59.468;18.040;2022-07-26T12:51:35;3.00;;;1.30;;
50379;SDS011;37474;59.468;18.040;2022-07-26T12:54:05;3.25;;;1.35;;
50379;SDS011;37474;59.468;18.040;2022-07-26T12:56:34;2.50;;;1.00;;
50379;SDS011;37474;59.468;18.040;2022-07-26T12:59:04;2.90;;;1.00;;
50379;SDS011;37474;59.468;18.040;2022-07-26T13:01:34;2.50;;;1.20;;
50379;SDS011;37474;59.468;18.040;2022-07-26T13:04:04;2.50;;;1.00;;
50379;SDS011;37474;59.468;18.040;2022-07-26T13:06:33;2.65;;;0.90;;
50379;SDS011;37474;59.468;18.040;2022-07-26T13:09:03;2.20;;;1.02;;
50379;SDS011;37474;59.468;18.040;2022-07-26T13:11:33;2.28;;;1.10;;
50379;SDS011;37474;59.468;18.040;2022-07-26T13:14:01;3.05;;;0.98;;
50379;SDS011;37474;59.468;18.040;2022-07-26T13:16:31;2.50;;;1.10;;
50379;SDS011;37474;59.468;18.040;2022-07-26T13:19:01;1.80;;;1.10;;
50379;SDS011;37474;59.468;18.040;2022-07-26T13:21:29;2.85;;;0.95;;
50379;SDS011;37474;59.468;18.040;2022-07-26T13:24:02;1.73;;;0.90;;
50379;SDS011;37474;59.468;18.040;2022-07-26T13:26:34;1.30;;;0.90;;
50379;SDS011;37474;59.468;18.040;2022-07-26T13:29:07;1.50;;;0.98;;
50379;SDS011;37474;59.468;18.040;2022-07-26T13:31:35;2.50;;;0.88;;
50379;SDS011;37474;59.468;18.040;2022-07-26T13:34:03;2.13;;;0.90;;
50379;SDS011;37474;59.468;18.040;2022-07-26T13:36:36;1.33;;;0.80;;
50379;SDS011;37474;59.468;18.040;2022-07-26T13:39:06;1.45;;;0.90;;
50379;SDS011;37474;59.468;18.040;2022-07-26T13:41:34;3.67;;;1.00;;
50379;SDS011;37474;59.468;18.040;2022-07-26T13:44:03;1.52;;;1.00;;
50379;SDS011;37474;59.468;18.040;2022-07-26T13:46:34;2.28;;;1.00;;
50379;SDS011;37474;59.468;18.040;2022-07-26T13:49:03;2.75;;;0.95;;
50379;SDS011;37474;59.468;18.040;2022-07-26T13:51:35;1.95;;;1.08;;
50379;SDS011;37474;59.468;18.040;2022-07-26T13:54:23;2.23;;;0.90;;
50379;SDS011;37474;59.468;18.040;2022-07-26T13:56:55;3.00;;;1.10;;
50379;SDS011;37474;59.468;18.040;2022-07-26T13:59:24;1.50;;;1.00;;
50379;SDS011;37474;59.468;18.040;2022-07-26T14:01:52;2.38;;;1.00;;
50379;SDS011;37474;59.468;18.040;2022-07-26T14:04:25;2.13;;;1.02;;
50379;SDS011;37474;59.468;18.040;2022-07-26T14:06:54;2.60;;;1.00;;
50379;SDS011;37474;59.468;18.040;2022-07-26T14:09:23;2.22;;;1.00;;
50379;SDS011;37474;59.468;18.040;2022-07-26T14:11:51;3.33;;;1.20;;
50379;SDS011;37474;59.468;18.040;2022-07-26T14:14:19;2.25;;;1.10;;
50379;SDS011;37474;59.468;18.040;2022-07-26T14:16:48;3.70;;;1.10;;
50379;SDS011;37474;59.468;18.040;2022-07-26T14:19:18;2.97;;;1.20;;
50379;SDS011;37474;59.468;18.040;2022-07-26T14:21:46;3.40;;;1.20;;
50379;SDS011;37474;59.468;18.040;2022-07-26T14:24:27;2.35;;;1.30;;
50379;SDS011;37474;59.468;18.040;2022-07-26T14:26:55;3.85;;;1.30;;
50379;SDS011;37474;59.468;18.040;2022-07-26T14:29:25;2.28;;;1.10;;
50379;SDS011;37474;59.468;18.040;2022-07-26T14:31:55;3.20;;;1.20;;
50379;SDS011;37474;59.468;18.040;2022-07-26T14:34:25;2.90;;;1.20;;
50379;SDS011;37474;59.468;18.040;2022-07-26T14:36:53;3.13;;;1.10;;
50379;SDS011;37474;59.468;18.040;2022-07-26T14:39:23;2.05;;;1.08;;
50379;SDS011;37474;59.468;18.040;2022-07-26T14:41:54;3.80;;;0.90;;
50379;SDS011;37474;59.468;18.040;2022-07-26T14:44:22;2.38;;;0.80;;
50379;SDS011;37474;59.468;18.040;2022-07-26T14:46:51;2.28;;;1.00;;
50379;SDS011;37474;59.468;18.040;2022-07-26T14:49:20;1.38;;;0.70;;
50379;SDS011;37474;59.468;18.040;2022-07-26T14:51:55;3.47;;;0.90;;
50379;SDS011;37474;59.468;18.040;2022-07-26T14:54:25;2.00;;;0.95;;
50379;SDS011;37474;59.468;18.040;2022-07-26T14:56:53;2.10;;;0.90;;
50379;SDS011;37474;59.468;18.040;2022-07-26T14:59:22;4.68;;;1.23;;
50379;SDS011;37474;59.468;18.040;2022-07-26T15:01:54;1.92;;;0.85;;
50379;SDS011;37474;59.468;18.040;2022-07-26T15:04:27;3.85;;;0.80;;
50379;SDS011;37474;59.468;18.040;2022-07-26T15:06:56;1.92;;;0.70;;
50379;SDS011;37474;59.468;18.040;2022-07-26T15:09:23;1.75;;;0.80;;
50379;SDS011;37474;59.468;18.040;2022-07-26T15:11:51;2.88;;;0.70;;